Aeroporto :
LOGIN :

Iscrizione | Disclaimer

   EN    FR    IT 

 










Sommario :    VFR   VFR Marginale   IFR   IFR Intensivo   IFR Molto Intensivo
Visibilità : 
Base nubi : 
>= 8 km
>= 3000ft
5 / 8 km
1000 / 3000 ft
1500m / 5 km
500 / 1000 ft
800 / 1500m
200 / 500 ft
< 800m
< 200 ft
Simboli :   Temporali  Nebbia  Neve Forte  Precipitazioni Forti  Vento > 20 kt
SIGMETs :   Varie  Temporali  Ghiacco  Turbolenza  Onda orograficha  Ceneri Vulcaniche







- Altitudine del aeroporto : 1768 ft


LEHC - Huesca Pirineos

ULTIMO METAR :
  • 230730Z AUTO 27012KT 9999 -RA BKN006/// OVC011/// 03/03 Q0997

METARs OBSOLETI :
  • 230700Z AUTO 27013KT 240V300 9000 -UP OVC016/// 03/02 Q0998
  • 230630Z AUTO 28012KT 250V310 9999 -UP SCT017/// SCT025/// BKN034/// 03/02 Q0999
  • 230600Z AUTO 28014KT 9999 -RA OVC033/// 03/02 Q0999
  • 230530Z AUTO 28016KT 9999 -RA SCT041 BKN049 03/02 Q1000
  • 230500Z AUTO 27013KT 240V300 9999 -RA SCT059 03/01 Q1000

TAF TAF LEHC
Valido dal 23 a 03 ore il 24 a 03 ore UTC


230200Z 2303/2403 29018KT 9999 SCT020 BKN040 TX07/2314Z TNM01/2306Z
TEMPO 2303/2309 RA BKN030
PROB30
TEMPO 2304/2309 SN BKN020
TEMPO 2307/2321 29020G30KT
PROB40
TEMPO 2311/2316 29025G38KT
Nessun NOTAM noto per questo aeroporto.
1 SIGMET conosciuto per la FIR Madrid (LECM) :
 
Turbolenza severa
LECM SIGMET 2 VALID 230800/231200 LEVA
LECM MADRID FIR SEV TURB FCST E OF LINE N3555 W00407 - N3643 W00347 SFC/FL040 STNR NC=



MetMap, La meteo Aeronautica in un colpo d'occhio ! - Copyright ORBIFLY Dicembre 2007 - Disclaimer

ORBIFLY MET'MAP TEAM :

Programmazione e sviluppo : Alexandra Zaïnal
Concezione e sviluppo : Baudouin d'Aumeries
Co-Programmazione e sviluppo : Marc-Olivier Méhu
Supporto tecnico e logistico : Manuel Goepfert
Aiuto per la traduzione : Arnaldo La Scala

Contatto : metmap@orbifly.com




FONTI E CREDITI :

   NOAA